createdAt,value
2022-08-28T00:01:17.150Z,35.1
2022-08-28T00:06:41.609Z,35.1
2022-08-28T00:12:18.667Z,35.1
2022-08-28T00:17:41.638Z,35.1
2022-08-28T00:23:21.655Z,35
2022-08-28T00:29:13.846Z,35
2022-08-28T00:35:01.460Z,34.9
2022-08-28T00:40:48.644Z,34.9
2022-08-28T00:46:14.433Z,34.9
2022-08-28T00:51:51.422Z,34.9
2022-08-28T00:57:35.068Z,34.9
2022-08-28T01:03:13.910Z,34.8
2022-08-28T01:08:51.404Z,34.8
2022-08-28T01:14:12.353Z,34.8
2022-08-28T01:20:02.584Z,34.8
2022-08-28T01:25:37.689Z,34.8
2022-08-28T01:31:16.341Z,34.7
2022-08-28T01:36:54.572Z,34.7
2022-08-28T01:42:33.311Z,34.6
2022-08-28T01:48:09.987Z,34.6
2022-08-28T01:53:57.610Z,34.6
2022-08-28T01:59:43.432Z,34.6
2022-08-28T02:05:22.017Z,34.6
2022-08-28T02:11:00.135Z,34.5
2022-08-28T02:16:30.573Z,34.5
2022-08-28T02:22:07.655Z,34.4
2022-08-28T02:27:29.663Z,34.4
2022-08-28T02:33:06.751Z,34.4
2022-08-28T02:38:55.468Z,34.4
2022-08-28T02:44:34.311Z,34.4
2022-08-28T02:50:11.668Z,34.3
2022-08-28T02:55:50.828Z,34.3
2022-08-28T03:01:12.527Z,34.3
2022-08-28T03:06:34.560Z,34.3
2022-08-28T03:12:14.325Z,34.3
2022-08-28T03:18:08.828Z,34.3
2022-08-28T03:23:32.826Z,34.2
2022-08-28T03:29:09.224Z,34.2
2022-08-28T03:34:32.801Z,34.2
2022-08-28T03:39:53.985Z,34.1
2022-08-28T03:45:38.752Z,34.1
2022-08-28T03:51:22.454Z,34.1
2022-08-28T03:57:05.291Z,34.1
2022-08-28T04:02:42.126Z,34
2022-08-28T04:08:19.228Z,34
2022-08-28T04:13:57.579Z,34
2022-08-28T04:19:33.900Z,33.9
2022-08-28T04:25:15.845Z,33.9
2022-08-28T04:30:52.789Z,33.9
2022-08-28T04:36:35.402Z,33.9
2022-08-28T04:42:24.174Z,33.9
2022-08-28T04:48:05.377Z,33.9
2022-08-28T04:53:49.228Z,33.8
2022-08-28T04:59:37.231Z,33.8
2022-08-28T05:05:14.609Z,33.8
2022-08-28T05:10:37.452Z,33.8
2022-08-28T05:16:12.767Z,33.8
2022-08-28T05:21:50.373Z,33.8
2022-08-28T05:27:15.718Z,33.8
2022-08-28T05:32:56.532Z,33.7
2022-08-28T05:38:20.920Z,33.7
2022-08-28T05:44:01.500Z,33.7
2022-08-28T05:49:44.744Z,33.6
2022-08-28T05:55:22.954Z,33.6
2022-08-28T06:00:45.069Z,33.6
2022-08-28T06:06:22.457Z,33.6
2022-08-28T06:11:55.475Z,33.6
2022-08-28T06:17:25.496Z,33.6
2022-08-28T06:22:48.963Z,33.6
2022-08-28T06:28:35.199Z,33.6
2022-08-28T06:34:46.995Z,33.6
2022-08-28T06:40:24.933Z,33.6
2022-08-28T06:46:01.854Z,33.6
2022-08-28T06:51:41.450Z,36.2
2022-08-28T06:57:32.304Z,44.6
2022-08-28T07:03:18.097Z,42.8
2022-08-28T07:09:10.777Z,41.2
2022-08-28T07:14:58.855Z,41.7
2022-08-28T07:20:39.326Z,46.1
2022-08-28T07:26:24.399Z,46.8
2022-08-28T07:32:16.840Z,47.2
2022-08-28T07:38:13.482Z,47.6
2022-08-28T07:43:52.798Z,48
2022-08-28T07:49:33.618Z,48.3
2022-08-28T07:55:23.642Z,48.5
2022-08-28T08:01:04.818Z,48.9
2022-08-28T08:06:33.045Z,49.3
2022-08-28T08:12:23.772Z,49.6
2022-08-28T08:18:04.322Z,49.9
2022-08-28T08:23:50.577Z,50.3
2022-08-28T08:29:38.393Z,50.7
2022-08-28T08:35:05.774Z,51.1
2022-08-28T08:41:00.469Z,51.5
2022-08-28T08:52:08.261Z,52.3
2022-08-28T08:57:46.165Z,52.8
2022-08-28T09:03:27.147Z,53.1
2022-08-28T09:09:15.226Z,53.5
2022-08-28T09:14:37.098Z,53.9
2022-08-28T09:20:20.344Z,54.2
2022-08-28T09:25:59.670Z,54.6
2022-08-28T09:31:47.565Z,54.9
2022-08-28T09:37:24.695Z,55.3
2022-08-28T09:42:45.387Z,55.6
2022-08-28T09:48:35.472Z,55.9
2022-08-28T09:54:15.352Z,56.3
2022-08-28T09:59:54.172Z,56.6
2022-08-28T10:05:42.905Z,56.9
2022-08-28T10:11:28.655Z,57.3
2022-08-28T10:17:07.533Z,57.6
2022-08-28T10:22:46.823Z,57.8
2022-08-28T10:28:25.941Z,58.1
2022-08-28T10:34:08.670Z,58.3
2022-08-28T10:39:59.028Z,58.4
2022-08-28T10:51:06.056Z,58.7
2022-08-28T10:56:58.939Z,58.8
2022-08-28T11:02:56.534Z,58.9
2022-08-28T11:09:01.005Z,59
2022-08-28T11:14:48.245Z,59.1
2022-08-28T11:20:29.205Z,59.3
2022-08-28T11:26:22.408Z,59.4
2022-08-28T11:32:08.606Z,59.6
2022-08-28T11:37:50.612Z,59.6
2022-08-28T11:43:27.951Z,59.7
2022-08-28T11:49:09.385Z,59.8
2022-08-28T11:54:46.311Z,59.9
2022-08-28T12:00:41.443Z,59.9
2022-08-28T12:06:19.743Z,59.9
2022-08-28T12:12:00.179Z,59.9
2022-08-28T12:17:37.953Z,59.9
2022-08-28T12:23:22.801Z,60
2022-08-28T12:29:04.181Z,60
2022-08-28T12:34:46.934Z,59.9
2022-08-28T12:40:39.365Z,59.9
2022-08-28T12:46:36.495Z,59.9
2022-08-28T12:52:17.004Z,59.9
2022-08-28T12:57:53.671Z,59.8
2022-08-28T13:03:40.723Z,59.8
2022-08-28T13:09:20.116Z,59.7
2022-08-28T13:15:24.231Z,59.6
2022-08-28T13:21:01.946Z,59.5
2022-08-28T13:27:03.380Z,59.4
2022-08-28T13:32:46.545Z,59.2
2022-08-28T13:38:37.350Z,59
2022-08-28T13:44:54.293Z,58.8
2022-08-28T13:56:23.218Z,58.4
2022-08-28T14:02:15.648Z,58.1
2022-08-28T14:07:54.879Z,57.9
2022-08-28T14:13:38.611Z,57.6
2022-08-28T14:19:16.729Z,57.3
2022-08-28T14:24:57.857Z,57
2022-08-28T14:30:41.132Z,56.6
2022-08-28T14:36:21.861Z,56.3
2022-08-28T14:42:01.544Z,55.8
2022-08-28T14:47:38.741Z,55.4
2022-08-28T14:53:16.160Z,55
2022-08-28T14:59:01.003Z,54.6
2022-08-28T15:04:56.136Z,54.1
2022-08-28T15:10:32.491Z,53.6
2022-08-28T15:16:19.408Z,52.2
2022-08-28T15:22:04.127Z,49.7
2022-08-28T15:27:54.106Z,47.7
2022-08-28T15:33:33.469Z,46.3
2022-08-28T15:39:29.573Z,45.3
2022-08-28T15:45:10.389Z,44.4
2022-08-28T15:50:56.065Z,43.8
2022-08-28T15:56:42.768Z,43.2
2022-08-28T16:02:40.484Z,42.6
2022-08-28T16:08:22.586Z,42.1
2022-08-28T16:14:03.674Z,41.8
2022-08-28T16:19:41.531Z,41.4
2022-08-28T16:25:18.377Z,41.1
2022-08-28T16:31:07.214Z,40.8
2022-08-28T16:36:56.999Z,40.6
2022-08-28T16:42:33.214Z,40.3
2022-08-28T16:48:12.951Z,40.1
2022-08-28T16:54:00.276Z,39.9
2022-08-28T16:59:44.388Z,39.7
2022-08-28T17:05:42.670Z,39.6
2022-08-28T17:11:25.526Z,39.4
2022-08-28T17:17:06.074Z,39.3
2022-08-28T17:22:49.047Z,39.1
2022-08-28T17:28:13.333Z,39
2022-08-28T17:33:51.083Z,38.9
2022-08-28T17:39:56.826Z,38.8
2022-08-28T17:45:34.244Z,38.6
2022-08-28T17:51:23.401Z,38.4
2022-08-28T17:57:26.568Z,38.3
2022-08-28T18:03:12.580Z,38.2
2022-08-28T18:09:02.771Z,38.1
2022-08-28T18:14:41.929Z,38
2022-08-28T18:20:32.410Z,37.9
2022-08-28T18:26:11.926Z,37.8
2022-08-28T18:31:55.622Z,37.7
2022-08-28T18:37:29.156Z,37.6
2022-08-28T18:43:30.424Z,37.5
2022-08-28T18:49:15.520Z,37.4
2022-08-28T18:54:52.390Z,37.3
2022-08-28T19:00:51.713Z,37.3
2022-08-28T19:06:29.075Z,37.2
2022-08-28T19:12:27.368Z,37.1
2022-08-28T19:18:10.562Z,37.3
2022-08-28T19:23:37.136Z,37.4
2022-08-28T19:29:11.040Z,37.3
2022-08-28T19:34:54.516Z,37.2
2022-08-28T19:40:29.528Z,37.1
2022-08-28T19:46:22.347Z,37
2022-08-28T19:52:12.231Z,37
2022-08-28T19:57:55.583Z,36.9
2022-08-28T20:03:43.790Z,36.9
2022-08-28T20:09:27.184Z,36.8
2022-08-28T20:14:49.050Z,36.8
2022-08-28T20:20:12.687Z,36.8
2022-08-28T20:26:09.298Z,36.7
2022-08-28T20:32:05.889Z,36.6
2022-08-28T20:38:01.776Z,36.6
2022-08-28T20:43:45.018Z,36.5
2022-08-28T20:49:13.096Z,36.4
2022-08-28T20:55:05.738Z,36.4
2022-08-28T21:00:46.085Z,36.4
2022-08-28T21:06:08.370Z,36.3
2022-08-28T21:12:15.923Z,36.3
2022-08-28T21:18:03.097Z,36.3
2022-08-28T21:24:04.414Z,36.2
2022-08-28T21:29:44.740Z,36.1
2022-08-28T21:35:07.449Z,36.1
2022-08-28T21:40:16.399Z,36.1
2022-08-28T21:45:45.329Z,36.1
2022-08-28T21:51:26.743Z,36
2022-08-28T21:57:12.728Z,35.9
2022-08-28T22:03:01.781Z,35.9
2022-08-28T22:08:38.742Z,35.9
2022-08-28T22:14:25.995Z,35.8
2022-08-28T22:20:12.543Z,35.8
2022-08-28T22:25:40.593Z,35.8
2022-08-28T22:31:22.718Z,35.8
2022-08-28T22:36:35.669Z,35.8
2022-08-28T22:42:08.841Z,35.7
2022-08-28T22:47:14.664Z,35.7
2022-08-28T22:52:35.288Z,35.6
2022-08-28T22:58:04.175Z,35.6
2022-08-28T23:03:42.538Z,35.6
2022-08-28T23:09:09.432Z,35.6
2022-08-28T23:14:55.311Z,35.5
2022-08-28T23:21:01.747Z,35.5
2022-08-28T23:26:47.103Z,35.5
2022-08-28T23:33:08.379Z,35.4
2022-08-28T23:38:43.065Z,35.4
2022-08-28T23:44:27.426Z,35.4
2022-08-28T23:50:00.539Z,35.3
2022-08-28T23:55:49.593Z,35.3
